createdAt,value
2023-03-15T00:00:00.473Z,95950.00
2023-03-15T00:02:28.818Z,95958.94
2023-03-15T00:04:56.963Z,95959.91
2023-03-15T00:07:25.934Z,95959.03
2023-03-15T00:09:55.571Z,95951.97
2023-03-15T00:12:24.098Z,95973.34
2023-03-15T00:14:52.408Z,95962.72
2023-03-15T00:17:22.835Z,95962.72
2023-03-15T00:19:50.942Z,95972.63
2023-03-15T00:22:19.017Z,95971.75
2023-03-15T00:24:47.152Z,95973.63
2023-03-15T00:27:16.619Z,95973.72
2023-03-15T00:29:44.706Z,95978.28
2023-03-15T00:32:12.926Z,95965.66
2023-03-15T00:34:41.004Z,95983.66
2023-03-15T00:37:09.301Z,95979.25
2023-03-15T00:39:39.704Z,95992.69
2023-03-15T00:42:09.754Z,95980.25
2023-03-15T00:44:39.213Z,95974.03
2023-03-15T00:47:07.400Z,95990.13
2023-03-15T00:49:35.489Z,95983.03
2023-03-15T00:52:03.647Z,95989.28
2023-03-15T00:54:33.522Z,95983.19
2023-03-15T00:57:01.632Z,95993.06
2023-03-15T00:59:29.799Z,95992.09
2023-03-15T01:01:59.485Z,96003.81
2023-03-15T01:04:27.597Z,96015.41
2023-03-15T01:06:55.717Z,96007.50
2023-03-15T01:09:23.829Z,96020.94
2023-03-15T01:11:51.989Z,96025.44
2023-03-15T01:14:20.090Z,96020.06
2023-03-15T01:16:48.228Z,96011.31
2023-03-15T01:19:17.767Z,96030.97
2023-03-15T01:21:47.952Z,96030.97
2023-03-15T01:24:18.470Z,96031.94
2023-03-15T01:26:46.568Z,96034.63
2023-03-15T01:29:14.885Z,96031.09
2023-03-15T01:31:43.065Z,96029.25
2023-03-15T01:34:11.970Z,96031.94
2023-03-15T01:36:41.545Z,96026.69
2023-03-15T01:39:09.775Z,96024.88
2023-03-15T01:41:43.502Z,96039.25
2023-03-15T01:44:14.811Z,96040.25
2023-03-15T01:46:43.330Z,96045.50
2023-03-15T01:49:22.946Z,96042.94
2023-03-15T01:51:53.653Z,96041.13
2023-03-15T01:54:24.597Z,96044.78
2023-03-15T01:56:54.068Z,96039.41
2023-03-15T01:59:25.133Z,96043.09
2023-03-15T02:01:54.652Z,96038.69
2023-03-15T02:04:25.093Z,96034.19
2023-03-15T02:06:59.290Z,96029.78
2023-03-15T02:09:38.505Z,96027.94
2023-03-15T02:12:07.040Z,96036.16
2023-03-15T02:14:35.284Z,96024.53
2023-03-15T02:17:04.709Z,96037.00
2023-03-15T02:19:40.211Z,96038.84
2023-03-15T02:22:19.611Z,96021.88
2023-03-15T02:24:50.496Z,96034.44
2023-03-15T02:27:23.771Z,96035.28
2023-03-15T02:29:52.050Z,96029.06
2023-03-15T02:32:22.032Z,96038.97
2023-03-15T02:34:50.846Z,96050.69
2023-03-15T02:37:18.973Z,96043.47
2023-03-15T02:39:47.671Z,96056.06
2023-03-15T02:42:15.753Z,96054.22
2023-03-15T02:44:46.035Z,96043.63
2023-03-15T02:47:16.584Z,96049.00
2023-03-15T02:49:46.144Z,96042.75
2023-03-15T02:52:14.854Z,96053.38
2023-03-15T02:54:43.588Z,96052.50
2023-03-15T02:57:12.396Z,96050.81
2023-03-15T02:59:42.186Z,96058.88
2023-03-15T03:02:12.581Z,96057.16
2023-03-15T03:04:42.742Z,96054.47
2023-03-15T03:07:11.130Z,96060.69
2023-03-15T03:09:49.698Z,96070.59
2023-03-15T03:12:19.287Z,96075.97
2023-03-15T03:14:47.927Z,96083.19
2023-03-15T03:17:20.751Z,96077.81
2023-03-15T03:19:48.986Z,96079.63
2023-03-15T03:22:20.344Z,96084.16
2023-03-15T03:24:48.701Z,96091.34
2023-03-15T03:27:17.714Z,96098.56
2023-03-15T03:29:47.926Z,96094.03
2023-03-15T03:32:17.499Z,96100.25
2023-03-15T03:34:48.480Z,96099.53
2023-03-15T03:37:19.761Z,96104.03
2023-03-15T03:39:58.914Z,96112.06
2023-03-15T03:42:27.290Z,96112.06
2023-03-15T03:44:55.554Z,96112.06
2023-03-15T03:47:26.494Z,96133.56
2023-03-15T03:49:56.072Z,96125.50
2023-03-15T03:52:24.796Z,96125.50
2023-03-15T03:54:55.768Z,96131.88
2023-03-15T03:57:23.888Z,96131.88
2023-03-15T03:59:52.069Z,96128.31
2023-03-15T04:02:20.249Z,96134.56
2023-03-15T04:04:59.720Z,96131.88
2023-03-15T04:07:28.081Z,96134.69
2023-03-15T04:09:56.481Z,96145.44
2023-03-15T04:12:24.698Z,96132.00
2023-03-15T04:14:55.811Z,96133.84
2023-03-15T04:17:26.931Z,96139.34
2023-03-15T04:19:55.108Z,96144.72
2023-03-15T04:22:29.496Z,96144.81
2023-03-15T04:25:36.272Z,96142.41
2023-03-15T04:28:40.103Z,96149.72
2023-03-15T04:31:27.536Z,96157.06
2023-03-15T04:34:05.491Z,96147.28
2023-03-15T04:36:54.725Z,96142.91
2023-03-15T04:39:42.843Z,96144.75
2023-03-15T04:42:34.413Z,96148.53
2023-03-15T04:45:30.572Z,96151.22
2023-03-15T04:48:01.500Z,96150.38
2023-03-15T04:50:40.403Z,96150.50
2023-03-15T04:53:26.773Z,96148.81
2023-03-15T04:56:15.070Z,96150.63
2023-03-15T04:59:03.560Z,96157.00
2023-03-15T05:01:50.276Z,96162.47
2023-03-15T05:04:44.946Z,96164.31
2023-03-15T05:07:18.934Z,96166.16
2023-03-15T05:10:06.670Z,96167.72
2023-03-15T05:12:46.481Z,96180.16
2023-03-15T05:15:28.802Z,96189.06
2023-03-15T05:18:29.803Z,96196.13
2023-03-15T05:21:16.473Z,96198.72
2023-03-15T05:23:58.169Z,96193.34
2023-03-15T05:26:38.293Z,96202.13
2023-03-15T05:29:27.085Z,96205.63
2023-03-15T05:32:14.016Z,96207.34
2023-03-15T05:34:56.672Z,96206.34
2023-03-15T05:37:36.415Z,96213.44
2023-03-15T05:40:36.871Z,96208.94
2023-03-15T05:43:24.946Z,96213.31
2023-03-15T05:46:29.680Z,96210.63
2023-03-15T05:49:04.322Z,96224.91
2023-03-15T05:51:49.863Z,96239.06
2023-03-15T05:54:38.224Z,96243.44
2023-03-15T05:57:32.549Z,96254.16
2023-03-15T06:00:16.233Z,96260.41
2023-03-15T06:02:46.006Z,96260.25
2023-03-15T06:05:38.650Z,96253.94
2023-03-15T06:08:10.628Z,96260.16
2023-03-15T06:10:42.864Z,96276.28
2023-03-15T06:13:12.290Z,96275.28
2023-03-15T06:15:41.563Z,96287.59
2023-03-15T06:18:13.839Z,96285.69
2023-03-15T06:20:42.116Z,96295.31
2023-03-15T06:23:14.007Z,96303.47
2023-03-15T06:25:47.736Z,96302.72
2023-03-15T06:28:16.589Z,96310.78
2023-03-15T06:30:50.988Z,96318.84
2023-03-15T06:33:24.432Z,96330.69
2023-03-15T06:35:53.251Z,96343.28
2023-03-15T06:38:21.357Z,96341.53
2023-03-15T06:40:49.980Z,96346.09
2023-03-15T06:43:19.600Z,96349.72
2023-03-15T06:45:48.137Z,96363.16
2023-03-15T06:48:17.519Z,96358.66
2023-03-15T06:50:47.999Z,96362.28
2023-03-15T06:53:16.915Z,96366.84
2023-03-15T06:55:45.107Z,96364.88
2023-03-15T06:58:13.347Z,96362.28
2023-03-15T07:00:41.632Z,96365.13
2023-03-15T07:03:09.753Z,96373.16
2023-03-15T07:05:38.288Z,96377.69
2023-03-15T07:08:07.962Z,96381.34
2023-03-15T07:10:36.557Z,96389.41
2023-03-15T07:13:06.933Z,96398.44
2023-03-15T07:15:37.300Z,96395.75
2023-03-15T07:18:05.459Z,96406.59
2023-03-15T07:20:35.041Z,96411.13
2023-03-15T07:23:04.422Z,96420.16
2023-03-15T07:25:42.231Z,96420.16
2023-03-15T07:28:20.361Z,96424.66
2023-03-15T07:30:56.783Z,96431.03
2023-03-15T07:33:25.173Z,96439.09
2023-03-15T07:35:54.226Z,96440.03
2023-03-15T07:38:22.392Z,96449.09
2023-03-15T07:40:51.948Z,96451.66
2023-03-15T07:43:20.475Z,96453.34
2023-03-15T07:45:51.809Z,96456.16
2023-03-15T07:48:19.936Z,96457.97
2023-03-15T07:50:48.181Z,96466.03
2023-03-15T07:53:16.351Z,96466.03
2023-03-15T07:55:44.999Z,96475.06
2023-03-15T07:58:14.433Z,96467.03
2023-03-15T08:00:42.639Z,96467.03
2023-03-15T08:03:10.771Z,96477.75
2023-03-15T08:05:39.989Z,96473.25
2023-03-15T08:08:08.316Z,96475.06
2023-03-15T08:10:36.417Z,96478.50
2023-03-15T08:13:04.493Z,96481.06
2023-03-15T08:15:33.984Z,96485.47
2023-03-15T08:18:02.095Z,96490.72
2023-03-15T08:20:30.334Z,96490.56
2023-03-15T08:22:58.446Z,96499.38
2023-03-15T08:25:26.560Z,96496.69
2023-03-15T08:27:54.635Z,96495.72
2023-03-15T08:30:23.005Z,96495.72
2023-03-15T08:32:53.013Z,96504.50
2023-03-15T08:35:22.214Z,96496.56
2023-03-15T08:37:50.355Z,96504.50
2023-03-15T08:40:24.919Z,96517.94
2023-03-15T08:42:53.095Z,96509.00
2023-03-15T08:45:21.284Z,96509.16
2023-03-15T08:47:49.493Z,96509.25
2023-03-15T08:50:19.241Z,96512.78
2023-03-15T08:52:47.304Z,96518.91
2023-03-15T08:55:15.468Z,96514.38
2023-03-15T08:57:43.950Z,96518.75
2023-03-15T09:00:17.572Z,96525.88
2023-03-15T09:02:48.197Z,96516.81
2023-03-15T09:05:16.524Z,96523.91
2023-03-15T09:07:45.965Z,96528.28
2023-03-15T09:10:15.847Z,96535.41
2023-03-15T09:12:43.936Z,96529.91
2023-03-15T09:15:12.420Z,96539.72
2023-03-15T09:17:40.892Z,96543.97
2023-03-15T09:20:14.476Z,96547.50
2023-03-15T09:22:42.628Z,96543.97
2023-03-15T09:25:13.819Z,96552.88
2023-03-15T09:27:42.302Z,96568.03
2023-03-15T09:30:12.154Z,96578.66
2023-03-15T09:32:41.292Z,96581.34
2023-03-15T09:35:12.105Z,96589.41
2023-03-15T09:37:42.660Z,96585.72
2023-03-15T09:40:17.540Z,96590.25
2023-03-15T09:42:55.967Z,96608.06
2023-03-15T09:45:26.654Z,96606.25
2023-03-15T09:47:57.324Z,96609.88
2023-03-15T09:50:29.710Z,96613.44
2023-03-15T09:53:00.578Z,96611.63
2023-03-15T09:55:30.474Z,96618.81
2023-03-15T09:57:59.898Z,96628.69
2023-03-15T10:00:31.084Z,96628.69
2023-03-15T10:03:01.579Z,96631.16
2023-03-15T10:05:35.199Z,96636.28
2023-03-15T10:08:03.367Z,96640.56
2023-03-15T10:10:35.627Z,96642.16
2023-03-15T10:13:09.556Z,96644.59
2023-03-15T10:15:41.486Z,96642.91
2023-03-15T10:18:35.532Z,96643.13
2023-03-15T10:21:07.713Z,96641.44
2023-03-15T10:23:41.378Z,96647.66
2023-03-15T10:26:13.894Z,96647.66
2023-03-15T10:28:42.344Z,96645.06
2023-03-15T10:31:21.634Z,96658.50
2023-03-15T10:33:54.052Z,96654.00
2023-03-15T10:36:23.221Z,96659.50
2023-03-15T10:38:51.436Z,96663.03
2023-03-15T10:41:30.974Z,96671.94
2023-03-15T10:44:01.172Z,96667.56
2023-03-15T10:46:29.345Z,96674.63
2023-03-15T10:48:59.292Z,96669.38
2023-03-15T10:51:28.679Z,96682.69
2023-03-15T10:53:57.968Z,96681.72
2023-03-15T10:56:27.143Z,96683.53
2023-03-15T10:59:11.360Z,96685.28
2023-03-15T11:01:40.948Z,96694.28
2023-03-15T11:04:15.184Z,96686.34
2023-03-15T11:06:45.721Z,96697.84
2023-03-15T11:09:16.181Z,96689.78
2023-03-15T11:12:00.912Z,96699.66
2023-03-15T11:14:34.903Z,96700.66
2023-03-15T11:17:03.116Z,96713.94
2023-03-15T11:19:32.805Z,96708.47
2023-03-15T11:22:02.267Z,96712.75
2023-03-15T11:24:31.051Z,96722.63
2023-03-15T11:27:01.701Z,96728.88
2023-03-15T11:29:31.674Z,96721.53
2023-03-15T11:32:02.373Z,96724.22
2023-03-15T11:34:41.734Z,96726.91
2023-03-15T11:37:15.961Z,96733.03
2023-03-15T11:39:46.673Z,96738.28
2023-03-15T11:42:17.604Z,96734.63
2023-03-15T11:44:47.252Z,96742.56
2023-03-15T11:47:19.637Z,96745.25
2023-03-15T11:49:50.095Z,96746.97
2023-03-15T11:52:18.409Z,96750.38
2023-03-15T11:54:46.758Z,96759.19
2023-03-15T11:57:39.447Z,96735.00
2023-03-15T12:00:49.216Z,96749.19
2023-03-15T12:03:35.533Z,96747.34
2023-03-15T12:06:35.771Z,96735.75
2023-03-15T12:09:05.021Z,96751.03
2023-03-15T12:11:40.679Z,96746.63
2023-03-15T12:14:28.978Z,96765.28
2023-03-15T12:17:38.117Z,96750.03
2023-03-15T12:20:14.361Z,96752.72
2023-03-15T12:22:43.156Z,96758.97
2023-03-15T12:25:14.269Z,96758.97
2023-03-15T12:27:44.814Z,96755.41
2023-03-15T12:30:20.213Z,96762.63
2023-03-15T12:32:50.249Z,96767.03
2023-03-15T12:35:20.821Z,96752.72
2023-03-15T12:37:49.498Z,96761.66
2023-03-15T12:40:40.725Z,96750.91
2023-03-15T12:43:09.291Z,96752.59
2023-03-15T12:45:39.717Z,96752.59
2023-03-15T12:48:26.979Z,96760.66
2023-03-15T12:51:05.013Z,96753.34
2023-03-15T12:53:38.881Z,96764.09
2023-03-15T12:56:43.938Z,96774.97
2023-03-15T12:59:17.691Z,96772.28
2023-03-15T13:01:46.422Z,96772.41
2023-03-15T13:04:14.640Z,96770.59
2023-03-15T13:07:11.949Z,96770.47
2023-03-15T13:10:02.781Z,96767.91
2023-03-15T13:12:32.680Z,96776.03
2023-03-15T13:15:02.627Z,96777.22
2023-03-15T13:17:36.891Z,96772.19
2023-03-15T13:20:16.134Z,96788.59
2023-03-15T13:22:55.541Z,96779.59
2023-03-15T13:25:27.199Z,96773.59
2023-03-15T13:27:56.191Z,96780.44
2023-03-15T13:30:42.102Z,96783.66
2023-03-15T13:33:16.033Z,96782.50
2023-03-15T13:35:44.595Z,96788.72
2023-03-15T13:38:27.196Z,96791.41
2023-03-15T13:40:55.473Z,96794.94
2023-03-15T13:43:26.916Z,96797.53
2023-03-15T13:45:58.165Z,96795.06
2023-03-15T13:48:28.520Z,96793.66
2023-03-15T13:50:57.448Z,96799.34
2023-03-15T13:53:43.139Z,96801.09
2023-03-15T13:56:17.084Z,96799.16
2023-03-15T13:58:45.179Z,96807.09
2023-03-15T14:01:13.718Z,96809.66
2023-03-15T14:03:43.412Z,96808.69
2023-03-15T14:06:13.536Z,96819.31
2023-03-15T14:08:43.404Z,96821.00
2023-03-15T14:11:32.743Z,96818.28
2023-03-15T14:14:03.013Z,96831.56
2023-03-15T14:16:34.175Z,96832.19
2023-03-15T14:19:19.140Z,96830.25
2023-03-15T14:21:49.023Z,96822.00
2023-03-15T14:24:22.189Z,96815.63
2023-03-15T14:26:53.450Z,96823.56
2023-03-15T14:29:23.771Z,96826.16
2023-03-15T14:31:52.191Z,96819.81
2023-03-15T14:34:24.636Z,96823.34
2023-03-15T14:36:54.236Z,96823.13
2023-03-15T14:39:28.946Z,96830.09
2023-03-15T14:41:57.321Z,96834.38
2023-03-15T14:44:25.451Z,96824.59
2023-03-15T14:46:53.541Z,96822.03
2023-03-15T14:49:24.372Z,96829.13
2023-03-15T14:51:54.646Z,96833.66
2023-03-15T14:54:22.812Z,96832.03
2023-03-15T14:56:52.419Z,96842.91
2023-03-15T14:59:20.638Z,96840.22
2023-03-15T15:01:50.454Z,96849.97
2023-03-15T15:04:18.690Z,96851.81
2023-03-15T15:06:52.248Z,96856.34
2023-03-15T15:09:23.129Z,96854.59
2023-03-15T15:11:53.545Z,96853.78
2023-03-15T15:14:22.084Z,96857.28
2023-03-15T15:16:50.408Z,96853.84
2023-03-15T15:19:18.655Z,96866.34
2023-03-15T15:21:46.853Z,96863.78
2023-03-15T15:24:16.622Z,96869.16
2023-03-15T15:26:44.886Z,96873.66
2023-03-15T15:29:16.203Z,96879.78
2023-03-15T15:31:44.739Z,96885.88
2023-03-15T15:34:13.057Z,96885.56
2023-03-15T15:36:42.172Z,96899.63
2023-03-15T15:39:18.360Z,96882.41
2023-03-15T15:41:46.775Z,96894.88
2023-03-15T15:44:17.872Z,96908.91
2023-03-15T15:46:46.291Z,96912.59
2023-03-15T15:49:14.721Z,96909.03
2023-03-15T15:51:45.891Z,96922.59
2023-03-15T15:54:15.470Z,96924.41
2023-03-15T15:56:46.763Z,96931.63
2023-03-15T15:59:17.738Z,96929.78
2023-03-15T16:01:59.419Z,96928.84
2023-03-15T16:04:28.732Z,96927.97
2023-03-15T16:06:58.662Z,96928.84
2023-03-15T16:09:27.350Z,96921.84
2023-03-15T16:11:55.782Z,96932.59
2023-03-15T16:14:25.380Z,96925.16
2023-03-15T16:16:53.626Z,96928.72
2023-03-15T16:19:22.135Z,96932.16
2023-03-15T16:21:51.018Z,96934.22
2023-03-15T16:24:20.701Z,96944.97
2023-03-15T16:26:48.890Z,96951.28
2023-03-15T16:29:18.179Z,96956.78
2023-03-15T16:31:47.800Z,96963.97
2023-03-15T16:34:17.114Z,96957.66
2023-03-15T16:36:49.199Z,96963.97
2023-03-15T16:39:17.755Z,96975.72
2023-03-15T16:41:46.022Z,96980.09
2023-03-15T16:44:14.397Z,96987.28
2023-03-15T16:46:42.608Z,96988.28
2023-03-15T16:49:14.318Z,96997.28
2023-03-15T16:51:44.334Z,96986.47
2023-03-15T16:57:01.584Z,96998.16
2023-03-15T16:59:29.698Z,96999.16
2023-03-15T17:01:57.941Z,97003.53
2023-03-15T17:04:27.493Z,97005.34
2023-03-15T17:06:56.449Z,97012.59
2023-03-15T17:09:24.566Z,97021.47
2023-03-15T17:11:53.092Z,97025.16
2023-03-15T17:14:22.416Z,97025.16
2023-03-15T17:16:51.122Z,97035.78
2023-03-15T17:19:19.210Z,97032.13
2023-03-15T17:21:49.339Z,97032.22
2023-03-15T17:24:17.495Z,97025.03
2023-03-15T17:26:45.631Z,97043.84
2023-03-15T17:29:14.888Z,97045.66
2023-03-15T17:31:44.605Z,97041.91
2023-03-15T17:34:12.756Z,97039.34
2023-03-15T17:36:41.112Z,97047.28
2023-03-15T17:39:12.475Z,97059.63
2023-03-15T17:41:40.622Z,97055.13
2023-03-15T17:44:08.720Z,97063.94
2023-03-15T17:46:36.905Z,97062.09
2023-03-15T17:49:06.355Z,97072.00
2023-03-15T17:51:35.581Z,97060.28
2023-03-15T17:54:03.623Z,97067.47
2023-03-15T17:56:33.203Z,97063.94
2023-03-15T17:59:01.726Z,97079.09
2023-03-15T18:01:29.957Z,97074.56
2023-03-15T18:03:58.359Z,97078.13
2023-03-15T18:06:26.967Z,97079.94
2023-03-15T18:08:55.033Z,97079.94
2023-03-15T18:11:24.742Z,97080.81
2023-03-15T18:13:54.342Z,97070.91
2023-03-15T18:16:22.584Z,97082.53
2023-03-15T18:18:50.785Z,97082.41
2023-03-15T18:21:20.278Z,97091.34
2023-03-15T18:23:49.772Z,97078.75
2023-03-15T18:26:20.031Z,97079.50
2023-03-15T18:28:49.072Z,97094.78
2023-03-15T18:31:19.165Z,97084.03
2023-03-15T18:33:47.349Z,97093.81
2023-03-15T18:36:15.571Z,97093.81
2023-03-15T18:38:43.838Z,97094.66
2023-03-15T18:41:14.093Z,97094.66
2023-03-15T18:43:42.214Z,97099.06
2023-03-15T18:46:10.504Z,97097.25
2023-03-15T18:48:41.254Z,97097.16
2023-03-15T18:51:12.214Z,97091.53
2023-03-15T18:53:40.450Z,97097.66
2023-03-15T18:56:10.012Z,97098.41
2023-03-15T18:58:38.144Z,97095.63
2023-03-15T19:01:06.319Z,97118.72
2023-03-15T19:03:35.492Z,97118.63
2023-03-15T19:06:07.677Z,97119.47
2023-03-15T19:08:35.957Z,97118.41
2023-03-15T19:11:04.740Z,97122.78
2023-03-15T19:13:32.916Z,97124.66
2023-03-15T19:16:01.831Z,97133.66
2023-03-15T19:18:32.347Z,97127.53
2023-03-15T19:21:00.738Z,97132.09
2023-03-15T19:23:30.276Z,97134.78
2023-03-15T19:25:58.385Z,97123.03
2023-03-15T19:28:26.543Z,97135.53
2023-03-15T19:30:54.688Z,97133.56
2023-03-15T19:33:22.848Z,97132.59
2023-03-15T19:35:51.332Z,97136.16
2023-03-15T19:38:19.980Z,97131.59
2023-03-15T19:40:50.525Z,97137.84
2023-03-15T19:43:19.927Z,97143.22
2023-03-15T19:45:48.061Z,97148.59
2023-03-15T19:48:16.592Z,97154.84
2023-03-15T19:50:44.767Z,97158.41
2023-03-15T19:53:12.876Z,97161.09
2023-03-15T19:55:41.022Z,97153.88
2023-03-15T19:58:10.601Z,97151.19
2023-03-15T20:00:38.771Z,97154.75
2023-03-15T20:03:06.922Z,97155.59
2023-03-15T20:05:35.640Z,97153.78
2023-03-15T20:08:03.737Z,97158.28
2023-03-15T20:10:31.830Z,97157.31
2023-03-15T20:12:59.934Z,97158.28
2023-03-15T20:15:29.632Z,97160.00
2023-03-15T20:17:57.857Z,97173.34
2023-03-15T20:20:26.018Z,97170.66
2023-03-15T20:22:54.133Z,97168.81
2023-03-15T20:25:22.412Z,97176.03
2023-03-15T20:27:50.993Z,97182.25
2023-03-15T20:30:19.954Z,97191.31
2023-03-15T20:32:49.761Z,97193.88
2023-03-15T20:35:18.077Z,97191.19
2023-03-15T20:37:46.151Z,97190.31
2023-03-15T20:40:15.545Z,97192.19
2023-03-15T20:42:43.636Z,97193.88
2023-03-15T20:45:12.786Z,97202.81
2023-03-15T20:47:41.286Z,97198.41
2023-03-15T20:50:13.196Z,97210.00
2023-03-15T20:52:42.741Z,97203.78
2023-03-15T20:55:11.549Z,97210.88
2023-03-15T20:57:42.132Z,97217.13
2023-03-15T21:00:12.704Z,97211.75
2023-03-15T21:02:41.235Z,97211.75
2023-03-15T21:05:13.115Z,97213.56
2023-03-15T21:07:41.422Z,97208.31
2023-03-15T21:10:11.028Z,97218.97
2023-03-15T21:12:39.052Z,97224.34
2023-03-15T21:15:08.348Z,97234.22
2023-03-15T21:17:36.473Z,97233.25
2023-03-15T21:20:07.305Z,97241.34
2023-03-15T21:22:36.773Z,97246.72
2023-03-15T21:25:05.729Z,97255.63
2023-03-15T21:27:33.925Z,97251.09
2023-03-15T21:30:02.512Z,97252.09
2023-03-15T21:32:30.646Z,97239.59
2023-03-15T21:34:58.740Z,97237.78
2023-03-15T21:37:26.853Z,97244.09
2023-03-15T21:39:56.420Z,97240.59
2023-03-15T21:42:24.585Z,97234.34
2023-03-15T21:44:53.784Z,97233.47
2023-03-15T21:47:21.897Z,97231.75
2023-03-15T21:49:50.888Z,97247.03
2023-03-15T21:52:18.973Z,97247.03
2023-03-15T21:54:47.054Z,97252.41
2023-03-15T21:57:16.753Z,97251.53
2023-03-15T21:59:44.848Z,97247.13
2023-03-15T22:02:14.357Z,97247.13
2023-03-15T22:04:42.819Z,97247.97
2023-03-15T22:07:11.190Z,97243.59
2023-03-15T22:09:40.193Z,97243.59
2023-03-15T22:12:08.936Z,97247.13
2023-03-15T22:14:38.529Z,97238.22
2023-03-15T22:17:06.819Z,97248.09
2023-03-15T22:19:35.148Z,97254.44
2023-03-15T22:22:03.387Z,97263.34
2023-03-15T22:24:34.071Z,97266.91
2023-03-15T22:27:02.277Z,97266.16
2023-03-15T22:29:30.466Z,97267.91
2023-03-15T22:31:59.926Z,97266.16
2023-03-15T22:34:28.332Z,97255.41
2023-03-15T22:36:56.431Z,97251.97
2023-03-15T22:39:24.520Z,97257.34
2023-03-15T22:41:52.848Z,97268.09
2023-03-15T22:44:20.983Z,97271.75
2023-03-15T22:46:49.088Z,97274.44
2023-03-15T22:49:18.600Z,97278.09
2023-03-15T22:51:46.663Z,97272.72
2023-03-15T22:54:14.755Z,97267.34
2023-03-15T22:56:43.237Z,97273.69
2023-03-15T22:59:11.400Z,97271.97
2023-03-15T23:01:39.850Z,97284.44
2023-03-15T23:04:08.044Z,97289.81
2023-03-15T23:06:37.557Z,97298.84
2023-03-15T23:09:06.748Z,97290.78
2023-03-15T23:11:35.029Z,97280.13
2023-03-15T23:14:03.121Z,97291.75
2023-03-15T23:16:31.961Z,97289.19
2023-03-15T23:19:00.107Z,97294.56
2023-03-15T23:21:28.281Z,97292.72
2023-03-15T23:23:57.767Z,97293.69
2023-03-15T23:26:26.393Z,97295.50
2023-03-15T23:28:54.488Z,97290.13
2023-03-15T23:31:22.616Z,97291.94
2023-03-15T23:33:50.757Z,97296.50
2023-03-15T23:36:18.867Z,97301.00
2023-03-15T23:38:47.132Z,97311.75
2023-03-15T23:41:16.601Z,97313.56
2023-03-15T23:43:44.739Z,97312.69
2023-03-15T23:46:14.539Z,97314.56
2023-03-15T23:48:42.758Z,97308.31
2023-03-15T23:51:12.675Z,97318.19
2023-03-15T23:53:40.806Z,97323.69
2023-03-15T23:56:09.033Z,97323.56
2023-03-15T23:58:38.739Z,97318.31
